Time;durP1;ratioP1;P1;durP2;ratioP2;P2;SDS_P1;SDS_P2;PMS_P1;PMS_P2;Temp;Humidity;BMP_temperature;BMP_pressure;BME280_temperature;BME280_humidity;BME280_pressure;Samples;Min_cycle;Max_cycle;Signal;HPM_P1;HPM_P2
2022/08/13 00:01:06;;;;;;;2.93;1.80;;;;;;;;;;5075590;28;20478;-77
2022/08/13 00:03:33;;;;;;;2.17;1.90;;;;;;;;;;5075933;28;20493;-78
2022/08/13 00:06:02;;;;;;;3.40;1.90;;;;;;;;;;5075920;28;20448;-76
2022/08/13 00:08:28;;;;;;;2.80;1.70;;;;;;;;;;5075662;28;20796;-75
2022/08/13 00:10:54;;;;;;;3.17;2.00;;;;;;;;;;5075645;28;20904;-76
2022/08/13 00:13:20;;;;;;;5.50;1.67;;;;;;;;;;5075989;28;20423;-77
2022/08/13 00:15:47;;;;;;;3.30;1.70;;;;;;;;;;5075809;28;20416;-78
2022/08/13 00:18:16;;;;;;;3.60;1.53;;;;;;;;;;5075730;28;20753;-75
2022/08/13 00:20:42;;;;;;;5.00;1.70;;;;;;;;;;5075314;28;20482;-76
2022/08/13 00:23:09;;;;;;;3.80;1.90;;;;;;;;;;5075877;28;21032;-77
2022/08/13 00:25:36;;;;;;;3.37;1.80;;;;;;;;;;5076010;28;20498;-77
2022/08/13 00:28:04;;;;;;;1.90;1.80;;;;;;;;;;5075461;28;20420;-77
2022/08/13 00:30:31;;;;;;;3.63;1.80;;;;;;;;;;5075230;28;20423;-77
2022/08/13 00:32:59;;;;;;;3.40;1.90;;;;;;;;;;5075542;28;20501;-76
2022/08/13 00:35:26;;;;;;;2.20;1.90;;;;;;;;;;5075528;28;20439;-77
2022/08/13 00:37:53;;;;;;;3.43;2.00;;;;;;;;;;5075191;28;20419;-76
2022/08/13 00:40:19;;;;;;;2.60;2.10;;;;;;;;;;5075259;28;20442;-74
2022/08/13 00:42:46;;;;;;;4.40;2.27;;;;;;;;;;5075458;28;20488;-77
2022/08/13 00:45:12;;;;;;;5.40;2.33;;;;;;;;;;5075443;28;20427;-74
2022/08/13 00:50:23;;;;;;;3.20;2.13;;;;;;;;;;5074732;28;20455;-77
2022/08/13 00:52:49;;;;;;;3.40;2.30;;;;;;;;;;5075083;28;20916;-77
2022/08/13 00:55:19;;;;;;;5.03;2.90;;;;;;;;;;5075146;28;20406;-76
2022/08/13 00:57:46;;;;;;;2.80;2.57;;;;;;;;;;5074670;28;20419;-77
2022/08/13 01:00:17;;;;;;;3.90;2.70;;;;;;;;;;5074607;28;20455;-77
2022/08/13 01:02:44;;;;;;;2.73;2.53;;;;;;;;;;5074942;28;20470;-77
2022/08/13 01:05:10;;;;;;;2.73;2.47;;;;;;;;;;5075042;28;20404;-76
2022/08/13 01:07:41;;;;;;;3.07;2.80;;;;;;;;;;5074569;28;20541;-76
2022/08/13 01:10:08;;;;;;;3.53;2.67;;;;;;;;;;5074639;28;20829;-76
2022/08/13 01:12:35;;;;;;;3.70;3.23;;;;;;;;;;5074878;28;20415;-77
2022/08/13 01:15:02;;;;;;;3.53;2.80;;;;;;;;;;5074801;28;20415;-76
2022/08/13 01:17:28;;;;;;;2.87;2.57;;;;;;;;;;5074605;28;20505;-76
2022/08/13 01:19:55;;;;;;;5.43;2.90;;;;;;;;;;5074305;28;20515;-77
2022/08/13 01:22:22;;;;;;;4.37;2.73;;;;;;;;;;5074378;28;20482;-76
2022/08/13 01:24:50;;;;;;;4.90;2.60;;;;;;;;;;5074561;28;20482;-76
2022/08/13 01:27:18;;;;;;;2.90;2.67;;;;;;;;;;5074558;28;20502;-77
2022/08/13 01:29:47;;;;;;;3.30;2.83;;;;;;;;;;5074040;28;20432;-76
2022/08/13 01:32:15;;;;;;;5.43;2.63;;;;;;;;;;5074291;28;20412;-75
2022/08/13 01:34:42;;;;;;;3.97;3.00;;;;;;;;;;5074594;28;20465;-77
2022/08/13 01:37:08;;;;;;;3.70;2.60;;;;;;;;;;5074081;28;20920;-76
2022/08/13 01:39:34;;;;;;;3.37;3.00;;;;;;;;;;5074117;28;20793;-76
2022/08/13 01:42:00;;;;;;;2.93;2.60;;;;;;;;;;5074080;28;20463;-77
2022/08/13 01:44:28;;;;;;;4.20;3.00;;;;;;;;;;5074021;28;20916;-76
2022/08/13 01:52:34;;;;;;;6.87;3.63;;;;;;;;;;5074249;28;20423;-76
2022/08/13 01:55:01;;;;;;;2.83;2.53;;;;;;;;;;5073900;28;20404;-76
2022/08/13 01:57:27;;;;;;;5.33;2.93;;;;;;;;;;5073886;28;20432;-77
2022/08/13 01:59:53;;;;;;;4.60;2.70;;;;;;;;;;5073445;28;20461;-76
2022/08/13 02:02:23;;;;;;;6.30;3.00;;;;;;;;;;5073073;28;20455;-76
2022/08/13 02:04:50;;;;;;;2.77;2.47;;;;;;;;;;5073826;28;20411;-77
2022/08/13 02:07:16;;;;;;;3.03;2.67;;;;;;;;;;5073614;28;20455;-76
2022/08/13 02:09:43;;;;;;;4.30;2.63;;;;;;;;;;5073386;28;20884;-77
2022/08/13 02:12:15;;;;;;;4.40;3.07;;;;;;;;;;5073419;28;20914;-76
2022/08/13 02:14:42;;;;;;;6.10;2.80;;;;;;;;;;5073501;28;20411;-76
2022/08/13 02:17:24;;;;;;;3.90;2.63;;;;;;;;;;5072395;28;20431;-76
2022/08/13 02:19:52;;;;;;;4.60;2.70;;;;;;;;;;5073523;28;20404;-76
2022/08/13 02:22:18;;;;;;;3.13;2.70;;;;;;;;;;5073332;28;20463;-76
2022/08/13 02:24:52;;;;;;;2.73;2.53;;;;;;;;;;5073429;28;20412;-76
2022/08/13 02:27:20;;;;;;;2.67;2.47;;;;;;;;;;5073349;28;20419;-76
2022/08/13 02:29:47;;;;;;;4.40;2.90;;;;;;;;;;5054823;28;20930;-77
2022/08/13 02:32:13;;;;;;;6.83;3.27;;;;;;;;;;5073341;28;20419;-77
2022/08/13 02:34:39;;;;;;;5.93;2.70;;;;;;;;;;5054777;28;20477;-77
2022/08/13 02:37:06;;;;;;;4.93;2.57;;;;;;;;;;5071824;28;20452;-77
2022/08/13 02:39:36;;;;;;;3.50;2.83;;;;;;;;;;5072782;28;20896;-77
2022/08/13 02:42:02;;;;;;;3.90;2.77;;;;;;;;;;5055216;28;20888;-77
2022/08/13 02:44:28;;;;;;;3.30;2.80;;;;;;;;;;5073188;28;20907;-76
2022/08/13 02:46:54;;;;;;;3.63;2.47;;;;;;;;;;5054836;28;20458;-77
2022/08/13 02:49:21;;;;;;;6.50;3.07;;;;;;;;;;5072660;28;20419;-76
2022/08/13 02:51:47;;;;;;;2.90;2.37;;;;;;;;;;5054211;28;20508;-77
2022/08/13 02:54:16;;;;;;;3.97;2.67;;;;;;;;;;5054943;28;20966;-76
2022/08/13 02:56:43;;;;;;;2.60;2.40;;;;;;;;;;5072900;28;20412;-77
2022/08/13 02:59:10;;;;;;;4.50;3.00;;;;;;;;;;5071729;28;20408;-77
2022/08/13 03:01:38;;;;;;;7.20;2.83;;;;;;;;;;5054465;28;20463;-77
2022/08/13 03:04:05;;;;;;;5.47;3.23;;;;;;;;;;5072859;28;20411;-78
2022/08/13 03:06:32;;;;;;;4.00;2.63;;;;;;;;;;5072975;28;20486;-77
2022/08/13 03:09:01;;;;;;;7.53;3.30;;;;;;;;;;5034563;28;20500;-77
2022/08/13 03:11:28;;;;;;;4.00;2.90;;;;;;;;;;5051183;28;20475;-78
2022/08/13 03:13:59;;;;;;;2.37;2.17;;;;;;;;;;5053710;28;20408;-77
2022/08/13 03:16:26;;;;;;;3.27;2.50;;;;;;;;;;5055732;28;20444;-78
2022/08/13 03:18:53;;;;;;;8.10;2.77;;;;;;;;;;5074722;28;20954;-77
2022/08/13 03:21:21;;;;;;;3.80;3.13;;;;;;;;;;5076123;28;20513;-78
2022/08/13 03:23:47;;;;;;;4.43;2.53;;;;;;;;;;5077330;28;20407;-78
2022/08/13 03:26:13;;;;;;;5.17;2.57;;;;;;;;;;5075908;28;20444;-77
2022/08/13 03:28:39;;;;;;;3.70;2.43;;;;;;;;;;5075563;28;20447;-77
2022/08/13 03:31:05;;;;;;;5.90;3.23;;;;;;;;;;5076596;28;20424;-76
2022/08/13 03:33:32;;;;;;;4.83;3.00;;;;;;;;;;5076743;28;20451;-77
2022/08/13 03:35:58;;;;;;;2.93;2.73;;;;;;;;;;5059720;28;20796;-80
2022/08/13 03:38:24;;;;;;;5.80;3.17;;;;;;;;;;5076230;28;20430;-76
2022/08/13 03:41:11;;;;;;;4.93;2.97;;;;;;;;;;5076268;28;20764;-76
2022/08/13 03:43:37;;;;;;;5.27;3.13;;;;;;;;;;5076673;28;20486;-78
2022/08/13 03:46:03;;;;;;;4.70;2.10;;;;;;;;;;5076597;28;20438;-76
2022/08/13 03:48:30;;;;;;;2.50;2.30;;;;;;;;;;5076382;28;20415;-78
2022/08/13 03:50:59;;;;;;;3.93;2.60;;;;;;;;;;5075939;28;20713;-78
2022/08/13 03:53:26;;;;;;;3.33;2.50;;;;;;;;;;5076414;28;20422;-76
2022/08/13 03:55:52;;;;;;;3.70;2.73;;;;;;;;;;5058288;28;20423;-78
2022/08/13 03:58:20;;;;;;;3.60;2.43;;;;;;;;;;5076343;28;20445;-76
2022/08/13 04:00:48;;;;;;;4.47;2.80;;;;;;;;;;5076529;28;20419;-76
2022/08/13 04:03:14;;;;;;;2.73;2.50;;;;;;;;;;5075944;28;20451;-76
2022/08/13 04:05:40;;;;;;;3.43;2.70;;;;;;;;;;5076045;28;20412;-79
2022/08/13 04:08:06;;;;;;;3.10;2.80;;;;;;;;;;5075703;28;20428;-76
2022/08/13 04:10:33;;;;;;;3.47;2.70;;;;;;;;;;5075595;28;20435;-77
2022/08/13 04:12:59;;;;;;;3.23;2.93;;;;;;;;;;5075962;28;20428;-76
2022/08/13 04:15:26;;;;;;;3.77;2.50;;;;;;;;;;5075637;28;20461;-76
2022/08/13 04:17:53;;;;;;;2.50;2.27;;;;;;;;;;5075469;28;20448;-75
2022/08/13 04:20:19;;;;;;;5.20;2.40;;;;;;;;;;5057427;28;20982;-76
2022/08/13 04:22:45;;;;;;;5.03;2.70;;;;;;;;;;5075706;28;20463;-76
2022/08/13 04:25:12;;;;;;;4.10;2.37;;;;;;;;;;5075258;28;20767;-76
2022/08/13 04:27:38;;;;;;;3.47;2.93;;;;;;;;;;5075087;28;20923;-77
2022/08/13 04:30:05;;;;;;;5.10;3.47;;;;;;;;;;5075263;28;20435;-75
2022/08/13 04:32:44;;;;;;;7.73;3.33;;;;;;;;;;5075724;28;20403;-76
2022/08/13 04:35:10;;;;;;;3.50;2.90;;;;;;;;;;5075514;28;20444;-77
2022/08/13 04:37:37;;;;;;;5.93;3.10;;;;;;;;;;5075258;28;20958;-76
2022/08/13 04:40:05;;;;;;;5.10;2.70;;;;;;;;;;5075120;28;20435;-76
2022/08/13 04:43:06;;;;;;;3.43;3.07;;;;;;;;;;5075206;28;20500;-77
2022/08/13 04:45:32;;;;;;;2.43;2.23;;;;;;;;;;5013368;28;20433;-76
2022/08/13 04:48:00;;;;;;;4.23;2.50;;;;;;;;;;5063045;28;20428;-75
2022/08/13 04:50:27;;;;;;;5.93;2.97;;;;;;;;;;5074867;28;20426;-76
2022/08/13 04:52:53;;;;;;;5.07;3.00;;;;;;;;;;5075219;28;20793;-76
2022/08/13 04:55:19;;;;;;;3.83;2.50;;;;;;;;;;5075103;28;20411;-76
2022/08/13 04:57:45;;;;;;;7.70;2.80;;;;;;;;;;5074807;28;20747;-76
2022/08/13 05:00:11;;;;;;;5.27;2.87;;;;;;;;;;5074605;28;20463;-76
2022/08/13 05:02:41;;;;;;;4.93;2.80;;;;;;;;;;5074786;28;20956;-76
2022/08/13 05:05:07;;;;;;;3.73;2.70;;;;;;;;;;5073810;28;20440;-77
2022/08/13 05:07:39;;;;;;;3.70;2.90;;;;;;;;;;5074652;28;20757;-76
2022/08/13 05:10:08;;;;;;;3.50;2.70;;;;;;;;;;5074432;28;20492;-77
2022/08/13 05:12:35;;;;;;;3.40;3.03;;;;;;;;;;5074847;28;20423;-75
2022/08/13 05:15:01;;;;;;;4.00;3.00;;;;;;;;;;5074767;28;20479;-76
2022/08/13 05:17:28;;;;;;;7.30;3.20;;;;;;;;;;5074780;28;20435;-77
2022/08/13 05:19:55;;;;;;;3.10;2.80;;;;;;;;;;5074191;28;20774;-76
2022/08/13 05:22:23;;;;;;;3.70;3.00;;;;;;;;;;5074369;28;20475;-77
2022/08/13 05:24:49;;;;;;;4.00;3.50;;;;;;;;;;5074562;28;20537;-77
2022/08/13 05:27:15;;;;;;;3.20;2.90;;;;;;;;;;5074506;28;20403;-77
2022/08/13 05:29:41;;;;;;;3.10;2.53;;;;;;;;;;5074105;28;20414;-75
2022/08/13 05:32:10;;;;;;;2.97;2.77;;;;;;;;;;5074263;28;20497;-76
2022/08/13 05:34:37;;;;;;;5.53;3.53;;;;;;;;;;5074404;28;20783;-77
2022/08/13 05:37:03;;;;;;;4.93;3.07;;;;;;;;;;5073997;28;20927;-76
2022/08/13 05:39:30;;;;;;;3.47;3.00;;;;;;;;;;5074183;28;20776;-76
2022/08/13 05:41:56;;;;;;;3.93;2.90;;;;;;;;;;5073927;28;20820;-77
2022/08/13 05:44:22;;;;;;;4.17;2.40;;;;;;;;;;5074070;28;20411;-76
2022/08/13 05:46:52;;;;;;;4.63;3.10;;;;;;;;;;5074009;28;20810;-77
2022/08/13 05:49:18;;;;;;;5.87;3.13;;;;;;;;;;5074162;28;20820;-77
2022/08/13 05:51:44;;;;;;;4.10;2.67;;;;;;;;;;5073677;28;20839;-79
2022/08/13 05:54:10;;;;;;;4.10;3.37;;;;;;;;;;5073803;28;20419;-76
2022/08/13 05:56:37;;;;;;;4.63;3.07;;;;;;;;;;5074047;28;20419;-76
2022/08/13 06:03:22;;;;;;;3.90;2.50;;;;;;;;;;5073950;28;20430;-77
2022/08/13 06:04:40;;;;;;;5.20;2.60;;;;;;;;;;5074103;28;20506;-77
2022/08/13 06:07:09;;;;;;;3.20;2.60;;;;;;;;;;5073490;28;20928;-76
2022/08/13 06:09:35;;;;;;;3.30;2.40;;;;;;;;;;5073336;28;20494;-76
2022/08/13 06:12:01;;;;;;;3.80;2.70;;;;;;;;;;5073470;28;20435;-76
2022/08/13 06:14:29;;;;;;;4.17;2.57;;;;;;;;;;5073394;28;20407;-77
2022/08/13 06:16:56;;;;;;;3.67;2.57;;;;;;;;;;5073687;28;20451;-77
2022/08/13 06:19:26;;;;;;;6.10;2.57;;;;;;;;;;5073523;28;20795;-76
2022/08/13 06:21:52;;;;;;;2.30;2.03;;;;;;;;;;5072946;28;20470;-76
2022/08/13 06:24:18;;;;;;;5.50;2.40;;;;;;;;;;5073528;28;20416;-76
2022/08/13 06:26:44;;;;;;;2.80;2.10;;;;;;;;;;5073407;28;20494;-75
2022/08/13 06:29:11;;;;;;;2.50;2.30;;;;;;;;;;5073482;28;20424;-77
2022/08/13 06:31:39;;;;;;;3.47;2.50;;;;;;;;;;5073132;28;20436;-77
2022/08/13 06:34:09;;;;;;;8.67;3.10;;;;;;;;;;5073343;28;20403;-77
2022/08/13 06:36:37;;;;;;;2.20;2.00;;;;;;;;;;5073486;28;20815;-77
2022/08/13 06:39:04;;;;;;;4.20;2.80;;;;;;;;;;5073374;28;20427;-77
2022/08/13 06:41:31;;;;;;;2.10;1.90;;;;;;;;;;5072774;28;20427;-78
2022/08/13 06:43:57;;;;;;;3.93;2.07;;;;;;;;;;5073197;28;20415;-77
2022/08/13 06:46:25;;;;;;;4.80;2.07;;;;;;;;;;5073073;28;20404;-78
2022/08/13 06:48:52;;;;;;;5.97;1.97;;;;;;;;;;5072446;28;20443;-77
2022/08/13 06:51:19;;;;;;;3.13;2.17;;;;;;;;;;5054273;28;20496;-77
2022/08/13 06:53:46;;;;;;;3.40;2.60;;;;;;;;;;5057186;28;20428;-77
2022/08/13 06:56:21;;;;;;;5.83;2.30;;;;;;;;;;5055033;28;20486;-77
2022/08/13 06:58:49;;;;;;;4.60;2.47;;;;;;;;;;5073169;28;20453;-76
2022/08/13 07:01:20;;;;;;;2.50;2.30;;;;;;;;;;5072571;28;20448;-77
2022/08/13 07:03:46;;;;;;;5.20;2.70;;;;;;;;;;5068339;28;20435;-76
2022/08/13 07:06:16;;;;;;;2.60;1.50;;;;;;;;;;5053966;28;20762;-77
2022/08/13 07:08:43;;;;;;;2.57;1.80;;;;;;;;;;5057673;28;20483;-76
2022/08/13 07:11:21;;;;;;;2.30;1.93;;;;;;;;;;5072576;28;20559;-76
2022/08/13 07:13:49;;;;;;;2.57;1.90;;;;;;;;;;5054217;28;20427;-76
2022/08/13 07:16:16;;;;;;;5.50;1.93;;;;;;;;;;5072862;28;20408;-77
2022/08/13 07:18:42;;;;;;;3.93;1.97;;;;;;;;;;5090919;28;20443;-76
2022/08/13 07:21:09;;;;;;;2.87;2.00;;;;;;;;;;5045997;28;20449;-77
2022/08/13 07:23:36;;;;;;;6.57;2.00;;;;;;;;;;5052805;28;20460;-78
2022/08/13 07:26:02;;;;;;;2.57;2.13;;;;;;;;;;5053006;28;20679;-77
2022/08/13 07:28:29;;;;;;;5.63;1.93;;;;;;;;;;5034975;28;20446;-76
2022/08/13 07:30:56;;;;;;;3.00;1.90;;;;;;;;;;5052185;28;20425;-76
2022/08/13 07:33:22;;;;;;;7.13;1.77;;;;;;;;;;5052454;28;20963;-76
2022/08/13 07:35:48;;;;;;;2.60;1.87;;;;;;;;;;5052557;28;20467;-76
2022/08/13 07:38:15;;;;;;;6.00;2.33;;;;;;;;;;5034819;28;20776;-77
2022/08/13 07:40:42;;;;;;;3.00;2.07;;;;;;;;;;5074033;28;20440;-76
2022/08/13 07:43:08;;;;;;;5.83;2.00;;;;;;;;;;5084438;28;20816;-76
2022/08/13 07:45:34;;;;;;;2.43;1.90;;;;;;;;;;5082558;28;20416;-77
2022/08/13 07:48:01;;;;;;;2.90;1.93;;;;;;;;;;5070775;28;20404;-76
2022/08/13 07:50:27;;;;;;;6.00;2.20;;;;;;;;;;5068423;28;20431;-77
2022/08/13 07:52:57;;;;;;;1.87;1.53;;;;;;;;;;5072477;28;20408;-76
2022/08/13 07:55:25;;;;;;;2.30;1.73;;;;;;;;;;5048132;28;20499;-77
2022/08/13 07:57:52;;;;;;;4.20;1.50;;;;;;;;;;5052501;28;20436;-77
2022/08/13 08:00:24;;;;;;;2.60;1.73;;;;;;;;;;5052135;28;20428;-77
2022/08/13 08:05:28;;;;;;;3.53;1.73;;;;;;;;;;5264447;22;20502;-77
2022/08/13 08:07:54;;;;;;;2.70;1.90;;;;;;;;;;5114508;28;20416;-78
2022/08/13 08:10:20;;;;;;;4.53;1.60;;;;;;;;;;5110927;28;20828;-78
2022/08/13 08:12:47;;;;;;;4.33;1.83;;;;;;;;;;5096286;28;20458;-78
2022/08/13 08:15:13;;;;;;;2.17;1.83;;;;;;;;;;5096083;28;20937;-77
2022/08/13 08:17:40;;;;;;;5.33;1.70;;;;;;;;;;5096346;28;20441;-77
2022/08/13 08:20:08;;;;;;;1.67;1.53;;;;;;;;;;5096065;28;20930;-77
2022/08/13 08:22:34;;;;;;;1.57;1.47;;;;;;;;;;5083741;28;20539;-77
2022/08/13 08:25:01;;;;;;;3.10;1.50;;;;;;;;;;5075877;28;20408;-78
2022/08/13 08:27:27;;;;;;;1.87;1.40;;;;;;;;;;5075781;28;20410;-78
2022/08/13 08:29:53;;;;;;;1.87;1.37;;;;;;;;;;5079847;28;20408;-77
2022/08/13 08:32:19;;;;;;;3.03;1.60;;;;;;;;;;5097571;28;20910;-77
2022/08/13 08:34:47;;;;;;;3.63;1.50;;;;;;;;;;5091448;28;20517;-78
2022/08/13 08:42:52;;;;;;;1.50;1.40;;;;;;;;;;5095620;28;20461;-78
2022/08/13 08:45:19;;;;;;;2.33;1.33;;;;;;;;;;5095450;28;20414;-77
2022/08/13 08:47:48;;;;;;;2.60;2.00;;;;;;;;;;5094336;28;20448;-78
2022/08/13 08:50:15;;;;;;;2.80;1.40;;;;;;;;;;5095125;28;20435;-77
2022/08/13 08:55:27;;;;;;;3.03;1.63;;;;;;;;;;5075303;28;20874;-78
2022/08/13 08:57:53;;;;;;;1.37;1.17;;;;;;;;;;5075176;28;20818;-75
2022/08/13 09:00:20;;;;;;;2.90;1.33;;;;;;;;;;5073494;28;20529;-76
2022/08/13 09:02:50;;;;;;;3.13;1.63;;;;;;;;;;5074950;28;20928;-76
2022/08/13 09:05:18;;;;;;;1.60;1.50;;;;;;;;;;5074613;28;20427;-76
2022/08/13 09:07:46;;;;;;;4.10;1.77;;;;;;;;;;5074853;28;20411;-75
2022/08/13 09:10:12;;;;;;;4.03;1.73;;;;;;;;;;5074449;28;20427;-76
2022/08/13 09:12:41;;;;;;;2.57;1.60;;;;;;;;;;5074389;28;20403;-76
2022/08/13 09:15:07;;;;;;;1.87;1.53;;;;;;;;;;5074509;28;20420;-75
2022/08/13 09:17:34;;;;;;;2.83;1.30;;;;;;;;;;5076510;28;20741;-77
2022/08/13 09:20:01;;;;;;;4.40;1.90;;;;;;;;;;5088530;28;20887;-76
2022/08/13 09:22:27;;;;;;;2.10;1.40;;;;;;;;;;5090836;28;20463;-76
2022/08/13 09:24:56;;;;;;;2.83;1.60;;;;;;;;;;5077333;28;20832;-76
2022/08/13 09:27:22;;;;;;;1.73;1.40;;;;;;;;;;5083858;28;20421;-76
2022/08/13 09:29:50;;;;;;;2.13;1.80;;;;;;;;;;5082904;28;20513;-76
2022/08/13 09:32:16;;;;;;;2.13;1.30;;;;;;;;;;5094916;28;20475;-74
2022/08/13 09:34:46;;;;;;;2.30;1.33;;;;;;;;;;5094699;28;20960;-75
2022/08/13 09:37:12;;;;;;;2.73;1.60;;;;;;;;;;5094490;28;20769;-75
2022/08/13 09:39:54;;;;;;;4.00;1.40;;;;;;;;;;5093716;28;20411;-74
2022/08/13 09:42:24;;;;;;;3.10;1.70;;;;;;;;;;5087335;28;20454;-74
2022/08/13 09:45:00;;;;;;;3.00;1.03;;;;;;;;;;5074449;28;20438;-74
2022/08/13 09:47:26;;;;;;;2.60;1.50;;;;;;;;;;5073071;28;20418;-75
2022/08/13 09:49:52;;;;;;;1.57;1.20;;;;;;;;;;5073528;28;20511;-74
2022/08/13 09:52:20;;;;;;;2.43;1.50;;;;;;;;;;5072925;28;20426;-75
2022/08/13 09:54:47;;;;;;;4.70;1.57;;;;;;;;;;5073979;28;20938;-76
2022/08/13 09:57:13;;;;;;;3.53;1.30;;;;;;;;;;5073811;28;20445;-75
2022/08/13 09:59:39;;;;;;;2.10;1.27;;;;;;;;;;5073474;28;20411;-76
2022/08/13 10:02:09;;;;;;;2.80;1.50;;;;;;;;;;5073859;28;20462;-76
2022/08/13 10:04:37;;;;;;;5.43;1.30;;;;;;;;;;5073514;28;20450;-75
2022/08/13 10:07:05;;;;;;;3.40;1.20;;;;;;;;;;5073796;28;20461;-75
2022/08/13 10:09:33;;;;;;;2.20;1.53;;;;;;;;;;5074526;28;20921;-76
2022/08/13 10:12:00;;;;;;;1.83;1.20;;;;;;;;;;5089989;28;20951;-75
2022/08/13 10:14:26;;;;;;;1.57;1.43;;;;;;;;;;5093893;28;20748;-75
2022/08/13 10:16:53;;;;;;;1.80;1.10;;;;;;;;;;5081699;28;20914;-75
2022/08/13 10:19:20;;;;;;;1.70;1.50;;;;;;;;;;5073346;28;20926;-75
2022/08/13 10:21:46;;;;;;;2.33;1.43;;;;;;;;;;5072194;28;20474;-75
2022/08/13 10:24:12;;;;;;;3.00;1.60;;;;;;;;;;5072541;28;20415;-74
2022/08/13 10:26:40;;;;;;;3.83;1.60;;;;;;;;;;5073273;28;20407;-75
2022/08/13 10:29:09;;;;;;;2.03;1.20;;;;;;;;;;5073135;28;20933;-76
2022/08/13 10:31:35;;;;;;;1.70;1.17;;;;;;;;;;5072844;28;20424;-75
2022/08/13 10:34:03;;;;;;;1.80;1.40;;;;;;;;;;5073332;28;20411;-75
2022/08/13 10:36:30;;;;;;;2.40;1.23;;;;;;;;;;5073514;28;20399;-75
2022/08/13 10:38:56;;;;;;;1.57;1.30;;;;;;;;;;5073380;28;20494;-75
2022/08/13 10:41:24;;;;;;;1.50;1.20;;;;;;;;;;5072678;28;20902;-75
2022/08/13 10:43:50;;;;;;;1.70;1.60;;;;;;;;;;5073179;28;20403;-75
2022/08/13 10:46:20;;;;;;;4.73;1.27;;;;;;;;;;5072798;28;20485;-75
2022/08/13 10:48:51;;;;;;;5.03;1.60;;;;;;;;;;5073340;28;20410;-75
2022/08/13 10:51:18;;;;;;;1.70;1.33;;;;;;;;;;5072748;28;20490;-76
2022/08/13 10:53:58;;;;;;;3.50;1.40;;;;;;;;;;5073356;28;20482;-74
2022/08/13 10:56:27;;;;;;;2.40;1.30;;;;;;;;;;5072974;28;20783;-75
2022/08/13 10:58:53;;;;;;;1.77;1.67;;;;;;;;;;5076260;28;20497;-75
2022/08/13 11:01:23;;;;;;;1.53;1.43;;;;;;;;;;5083248;28;20526;-75
2022/08/13 11:03:49;;;;;;;2.43;1.43;;;;;;;;;;5083503;28;20462;-75
2022/08/13 11:06:15;;;;;;;1.43;1.33;;;;;;;;;;5082827;28;20403;-75
2022/08/13 11:08:41;;;;;;;1.50;1.00;;;;;;;;;;5081382;28;20402;-75
2022/08/13 11:11:09;;;;;;;1.50;1.40;;;;;;;;;;5081515;28;20427;-74
2022/08/13 11:13:36;;;;;;;3.87;1.60;;;;;;;;;;5082177;28;20886;-74
2022/08/13 11:16:05;;;;;;;3.83;1.50;;;;;;;;;;5083746;28;20410;-74
2022/08/13 11:18:32;;;;;;;1.80;1.50;;;;;;;;;;5080706;28;20843;-71
2022/08/13 11:21:07;;;;;;;1.37;1.10;;;;;;;;;;5083002;28;20476;-74
2022/08/13 11:23:34;;;;;;;2.13;1.60;;;;;;;;;;5083599;28;20598;-74
2022/08/13 11:26:00;;;;;;;5.60;1.50;;;;;;;;;;5083627;28;20406;-74
2022/08/13 11:28:26;;;;;;;1.70;1.33;;;;;;;;;;5081469;28;20408;-74
2022/08/13 11:30:53;;;;;;;2.23;1.40;;;;;;;;;;5083535;28;20429;-74
2022/08/13 11:33:20;;;;;;;1.23;1.10;;;;;;;;;;5083017;28;20414;-73
2022/08/13 11:35:47;;;;;;;2.07;1.50;;;;;;;;;;5085683;28;20415;-73
2022/08/13 11:38:13;;;;;;;5.10;1.23;;;;;;;;;;5084954;28;20439;-73
2022/08/13 11:40:40;;;;;;;1.50;1.40;;;;;;;;;;5084707;28;20774;-73
2022/08/13 11:43:06;;;;;;;2.50;1.37;;;;;;;;;;5086881;28;20538;-74
2022/08/13 11:45:32;;;;;;;1.70;1.30;;;;;;;;;;5085043;28;20490;-74
2022/08/13 11:47:58;;;;;;;2.03;1.37;;;;;;;;;;5085540;28;20441;-74
2022/08/13 11:50:24;;;;;;;2.70;1.57;;;;;;;;;;5094915;28;20433;-73
2022/08/13 11:52:50;;;;;;;1.50;1.40;;;;;;;;;;5096587;28;20441;-74
2022/08/13 11:55:16;;;;;;;1.40;1.27;;;;;;;;;;5096656;28;20456;-72
2022/08/13 11:57:42;;;;;;;2.33;1.40;;;;;;;;;;5087781;28;20419;-73
2022/08/13 12:00:08;;;;;;;1.90;1.70;;;;;;;;;;5087417;28;20798;-73
2022/08/13 12:02:34;;;;;;;3.73;1.93;;;;;;;;;;5096313;28;20933;-73
2022/08/13 12:05:00;;;;;;;2.60;1.20;;;;;;;;;;5096353;28;20448;-72
2022/08/13 12:07:27;;;;;;;7.00;1.53;;;;;;;;;;5096335;28;20414;-76
2022/08/13 12:09:53;;;;;;;1.93;1.37;;;;;;;;;;5096024;28;20402;-75
2022/08/13 12:12:19;;;;;;;2.17;1.30;;;;;;;;;;5096235;28;20410;-74
2022/08/13 12:14:45;;;;;;;2.90;1.50;;;;;;;;;;5096117;28;20420;-75
2022/08/13 12:17:11;;;;;;;2.30;1.10;;;;;;;;;;5096142;28;20425;-74
2022/08/13 12:19:37;;;;;;;3.73;1.60;;;;;;;;;;5095749;28;20746;-73
2022/08/13 12:22:04;;;;;;;1.63;1.53;;;;;;;;;;5096025;28;20461;-74
2022/08/13 12:24:30;;;;;;;2.00;1.30;;;;;;;;;;5095927;28;20494;-73
2022/08/13 12:26:56;;;;;;;1.73;1.20;;;;;;;;;;5095917;28;20969;-72
2022/08/13 12:29:22;;;;;;;1.60;1.27;;;;;;;;;;5096077;28;20453;-73
2022/08/13 12:31:48;;;;;;;2.10;1.50;;;;;;;;;;5095337;28;20465;-72
2022/08/13 12:34:14;;;;;;;4.00;1.50;;;;;;;;;;5094884;28;21055;-72
2022/08/13 12:36:40;;;;;;;1.80;1.30;;;;;;;;;;5095938;28;20410;-74
2022/08/13 12:39:06;;;;;;;2.50;1.43;;;;;;;;;;5095620;28;20413;-73
2022/08/13 12:41:32;;;;;;;1.60;1.50;;;;;;;;;;5095083;28;20436;-72
2022/08/13 12:43:58;;;;;;;1.60;1.30;;;;;;;;;;5095526;28;20422;-74
2022/08/13 12:46:24;;;;;;;3.57;1.30;;;;;;;;;;5087832;28;20537;-75
2022/08/13 12:48:50;;;;;;;3.30;1.50;;;;;;;;;;5082358;28;20430;-75
2022/08/13 12:51:16;;;;;;;1.70;1.60;;;;;;;;;;5089318;28;20590;-74
2022/08/13 12:53:42;;;;;;;2.33;1.70;;;;;;;;;;5094782;28;20414;-73
2022/08/13 12:56:08;;;;;;;3.07;1.50;;;;;;;;;;5089650;28;20418;-72
2022/08/13 12:58:34;;;;;;;2.07;1.57;;;;;;;;;;5094196;28;20961;-74
2022/08/13 13:01:01;;;;;;;1.97;1.37;;;;;;;;;;5094395;28;20441;-74
2022/08/13 13:03:27;;;;;;;1.57;1.30;;;;;;;;;;5092547;28;20478;-73
2022/08/13 13:05:54;;;;;;;1.50;1.33;;;;;;;;;;5092607;28;20427;-73
2022/08/13 13:08:22;;;;;;;5.90;1.53;;;;;;;;;;5091597;28;20417;-73
2022/08/13 13:10:50;;;;;;;1.87;1.77;;;;;;;;;;5093290;28;20442;-74
2022/08/13 13:13:18;;;;;;;1.60;1.43;;;;;;;;;;5090286;28;20445;-74
2022/08/13 13:15:44;;;;;;;1.20;1.10;;;;;;;;;;5092960;28;20424;-74
2022/08/13 13:18:11;;;;;;;1.73;1.50;;;;;;;;;;5092000;28;20409;-76
2022/08/13 13:20:41;;;;;;;1.40;1.30;;;;;;;;;;5086632;28;20891;-75
2022/08/13 13:23:07;;;;;;;3.63;1.50;;;;;;;;;;5093591;28;20458;-78
2022/08/13 13:25:33;;;;;;;1.70;1.40;;;;;;;;;;5089977;28;20517;-74
2022/08/13 13:28:03;;;;;;;5.10;1.30;;;;;;;;;;5093574;28;20489;-74
2022/08/13 13:30:29;;;;;;;1.93;1.70;;;;;;;;;;5090020;28;20497;-74
2022/08/13 13:32:56;;;;;;;1.80;1.57;;;;;;;;;;5090561;28;20430;-74
2022/08/13 13:35:22;;;;;;;2.67;1.30;;;;;;;;;;5090875;28;20430;-73
2022/08/13 13:37:48;;;;;;;1.50;1.40;;;;;;;;;;5094232;28;20906;-73
2022/08/13 13:40:14;;;;;;;2.07;1.47;;;;;;;;;;5092865;28;20514;-73
2022/08/13 13:42:41;;;;;;;3.80;1.60;;;;;;;;;;5088503;28;20465;-73
2022/08/13 13:45:07;;;;;;;1.93;1.20;;;;;;;;;;5094217;28;20437;-74
2022/08/13 13:47:34;;;;;;;1.57;1.47;;;;;;;;;;5092256;28;20426;-73
2022/08/13 13:50:00;;;;;;;3.70;1.83;;;;;;;;;;5088387;28;20503;-73
2022/08/13 13:52:26;;;;;;;1.57;1.47;;;;;;;;;;5091734;28;20418;-74
2022/08/13 13:54:53;;;;;;;1.63;1.30;;;;;;;;;;5091693;28;20483;-74
2022/08/13 13:57:19;;;;;;;1.30;1.20;;;;;;;;;;5092546;28;20433;-74
2022/08/13 13:59:45;;;;;;;2.23;1.50;;;;;;;;;;5090399;28;20445;-75
2022/08/13 14:02:11;;;;;;;1.40;1.30;;;;;;;;;;5093701;28;20450;-76
2022/08/13 14:04:37;;;;;;;6.13;1.40;;;;;;;;;;5089528;28;20877;-75
2022/08/13 14:07:04;;;;;;;1.40;1.30;;;;;;;;;;5082343;28;20454;-75
2022/08/13 14:09:30;;;;;;;1.77;1.10;;;;;;;;;;5090555;28;20436;-80
2022/08/13 14:11:56;;;;;;;3.00;1.37;;;;;;;;;;5090133;28;20465;-74
2022/08/13 14:14:22;;;;;;;1.93;1.50;;;;;;;;;;5093672;28;20475;-73
2022/08/13 14:16:49;;;;;;;2.80;1.30;;;;;;;;;;5092675;28;20434;-74
2022/08/13 14:19:17;;;;;;;1.40;1.27;;;;;;;;;;5087343;28;20458;-73
2022/08/13 14:21:44;;;;;;;1.53;1.43;;;;;;;;;;5107542;28;20788;-75
2022/08/13 14:24:09;;;;;;;2.60;1.53;;;;;;;;;;5091228;28;20438;-73
2022/08/13 14:26:37;;;;;;;2.93;2.10;;;;;;;;;;5092542;28;20895;-73
2022/08/13 14:29:03;;;;;;;1.60;1.30;;;;;;;;;;5088891;28;20998;-74
2022/08/13 14:31:29;;;;;;;1.87;1.30;;;;;;;;;;5090164;28;20804;-73
2022/08/13 14:33:55;;;;;;;2.80;1.53;;;;;;;;;;5089694;28;20442;-73
2022/08/13 14:36:24;;;;;;;1.30;1.20;;;;;;;;;;5089515;28;20851;-73
2022/08/13 14:38:51;;;;;;;2.67;1.23;;;;;;;;;;5087768;28;20430;-73
2022/08/13 14:41:17;;;;;;;6.60;1.60;;;;;;;;;;5089686;28;20485;-73
2022/08/13 14:43:46;;;;;;;6.17;1.50;;;;;;;;;;5087359;28;20467;-73
2022/08/13 14:46:15;;;;;;;2.30;2.07;;;;;;;;;;5090806;28;20442;-73
2022/08/13 14:48:42;;;;;;;4.57;3.67;;;;;;;;;;5092335;28;20442;-73
2022/08/13 14:51:08;;;;;;;2.00;1.80;;;;;;;;;;5088308;28;20834;-73
2022/08/13 14:53:36;;;;;;;3.00;1.30;;;;;;;;;;5090866;28;20797;-72
2022/08/13 14:56:03;;;;;;;2.53;2.10;;;;;;;;;;5091727;28;20860;-72
2022/08/13 14:58:30;;;;;;;3.60;3.30;;;;;;;;;;5091193;28;21051;-73
2022/08/13 15:00:56;;;;;;;4.30;3.87;;;;;;;;;;5091449;28;20426;-73
2022/08/13 15:03:23;;;;;;;2.27;1.60;;;;;;;;;;5091315;28;20462;-73
2022/08/13 15:05:51;;;;;;;4.93;1.50;;;;;;;;;;5089866;28;20430;-74